sensor_id;sensor_type;location;lat;lon;timestamp;P1;durP1;ratioP1;P2;durP2;ratioP2
12493;SDS011;8260;51.422;6.786;2023-06-19T00:00:06;6.57;;;5.97;;
12493;SDS011;8260;51.422;6.786;2023-06-19T00:02:40;6.40;;;5.82;;
12493;SDS011;8260;51.422;6.786;2023-06-19T00:05:09;8.13;;;6.30;;
12493;SDS011;8260;51.422;6.786;2023-06-19T00:07:38;6.80;;;6.20;;
12493;SDS011;8260;51.422;6.786;2023-06-19T00:10:07;6.57;;;5.82;;
12493;SDS011;8260;51.422;6.786;2023-06-19T00:12:36;6.80;;;6.20;;
12493;SDS011;8260;51.422;6.786;2023-06-19T00:15:05;6.97;;;6.15;;
12493;SDS011;8260;51.422;6.786;2023-06-19T00:17:35;7.57;;;6.60;;
12493;SDS011;8260;51.422;6.786;2023-06-19T00:20:06;7.30;;;6.70;;
12493;SDS011;8260;51.422;6.786;2023-06-19T00:22:35;7.18;;;6.47;;
12493;SDS011;8260;51.422;6.786;2023-06-19T00:25:04;6.97;;;6.40;;
12493;SDS011;8260;51.422;6.786;2023-06-19T00:27:33;7.00;;;6.30;;
12493;SDS011;8260;51.422;6.786;2023-06-19T00:30:01;6.65;;;6.05;;
12493;SDS011;8260;51.422;6.786;2023-06-19T00:32:30;6.65;;;6.05;;
12493;SDS011;8260;51.422;6.786;2023-06-19T00:35:13;6.70;;;6.03;;
12493;SDS011;8260;51.422;6.786;2023-06-19T00:37:42;7.30;;;6.60;;
12493;SDS011;8260;51.422;6.786;2023-06-19T00:40:19;6.70;;;6.10;;
12493;SDS011;8260;51.422;6.786;2023-06-19T00:42:50;7.57;;;6.68;;
12493;SDS011;8260;51.422;6.786;2023-06-19T00:45:18;7.95;;;6.10;;
12493;SDS011;8260;51.422;6.786;2023-06-19T00:47:47;7.00;;;6.40;;
12493;SDS011;8260;51.422;6.786;2023-06-19T00:50:17;6.95;;;6.28;;
12493;SDS011;8260;51.422;6.786;2023-06-19T00:52:45;6.22;;;5.72;;
12493;SDS011;8260;51.422;6.786;2023-06-19T00:55:14;6.25;;;5.70;;
12493;SDS011;8260;51.422;6.786;2023-06-19T00:57:43;6.15;;;5.65;;
12493;SDS011;8260;51.422;6.786;2023-06-19T01:00:12;6.63;;;6.07;;
12493;SDS011;8260;51.422;6.786;2023-06-19T01:02:40;6.63;;;6.05;;
12493;SDS011;8260;51.422;6.786;2023-06-19T01:05:09;6.28;;;5.68;;
12493;SDS011;8260;51.422;6.786;2023-06-19T01:07:41;6.80;;;5.75;;
12493;SDS011;8260;51.422;6.786;2023-06-19T01:10:11;7.18;;;6.57;;
12493;SDS011;8260;51.422;6.786;2023-06-19T01:12:42;6.55;;;5.95;;
12493;SDS011;8260;51.422;6.786;2023-06-19T01:15:14;7.18;;;6.40;;
12493;SDS011;8260;51.422;6.786;2023-06-19T01:17:43;7.25;;;6.55;;
12493;SDS011;8260;51.422;6.786;2023-06-19T01:20:13;7.53;;;6.63;;
12493;SDS011;8260;51.422;6.786;2023-06-19T01:22:43;6.82;;;6.28;;
12493;SDS011;8260;51.422;6.786;2023-06-19T01:25:11;6.68;;;6.07;;
12493;SDS011;8260;51.422;6.786;2023-06-19T01:27:40;6.40;;;5.80;;
12493;SDS011;8260;51.422;6.786;2023-06-19T01:30:09;7.72;;;6.93;;
12493;SDS011;8260;51.422;6.786;2023-06-19T01:32:41;6.68;;;6.10;;
12493;SDS011;8260;51.422;6.786;2023-06-19T01:35:13;6.53;;;6.03;;
12493;SDS011;8260;51.422;6.786;2023-06-19T01:37:44;7.28;;;6.40;;
12493;SDS011;8260;51.422;6.786;2023-06-19T01:40:13;6.57;;;5.95;;
12493;SDS011;8260;51.422;6.786;2023-06-19T01:42:42;6.47;;;5.85;;
12493;SDS011;8260;51.422;6.786;2023-06-19T01:45:11;6.55;;;5.95;;
12493;SDS011;8260;51.422;6.786;2023-06-19T01:47:40;7.28;;;6.68;;
12493;SDS011;8260;51.422;6.786;2023-06-19T01:50:08;6.50;;;5.90;;
12493;SDS011;8260;51.422;6.786;2023-06-19T01:52:38;6.82;;;6.18;;
12493;SDS011;8260;51.422;6.786;2023-06-19T01:55:08;7.18;;;6.47;;
12493;SDS011;8260;51.422;6.786;2023-06-19T01:57:37;7.35;;;6.65;;
12493;SDS011;8260;51.422;6.786;2023-06-19T02:00:05;7.47;;;6.68;;
12493;SDS011;8260;51.422;6.786;2023-06-19T02:02:36;7.30;;;6.70;;
12493;SDS011;8260;51.422;6.786;2023-06-19T02:05:05;7.40;;;6.80;;
12493;SDS011;8260;51.422;6.786;2023-06-19T02:07:34;6.68;;;6.05;;
12493;SDS011;8260;51.422;6.786;2023-06-19T02:10:02;7.07;;;6.43;;
12493;SDS011;8260;51.422;6.786;2023-06-19T02:12:33;7.15;;;6.53;;
12493;SDS011;8260;51.422;6.786;2023-06-19T02:15:01;7.45;;;6.70;;
12493;SDS011;8260;51.422;6.786;2023-06-19T02:17:30;7.38;;;6.70;;
12493;SDS011;8260;51.422;6.786;2023-06-19T02:19:59;7.80;;;6.45;;
12493;SDS011;8260;51.422;6.786;2023-06-19T02:22:28;6.88;;;6.28;;
12493;SDS011;8260;51.422;6.786;2023-06-19T02:24:56;7.35;;;6.70;;
12493;SDS011;8260;51.422;6.786;2023-06-19T02:27:25;7.20;;;6.47;;
12493;SDS011;8260;51.422;6.786;2023-06-19T02:29:55;7.38;;;6.70;;
12493;SDS011;8260;51.422;6.786;2023-06-19T02:32:23;7.55;;;6.32;;
12493;SDS011;8260;51.422;6.786;2023-06-19T02:34:52;6.22;;;5.63;;
12493;SDS011;8260;51.422;6.786;2023-06-19T02:37:21;7.72;;;6.95;;
12493;SDS011;8260;51.422;6.786;2023-06-19T02:39:49;7.22;;;6.47;;
12493;SDS011;8260;51.422;6.786;2023-06-19T02:42:18;7.82;;;6.72;;
12493;SDS011;8260;51.422;6.786;2023-06-19T02:44:47;6.90;;;6.30;;
12493;SDS011;8260;51.422;6.786;2023-06-19T02:47:17;7.32;;;6.55;;
12493;SDS011;8260;51.422;6.786;2023-06-19T02:49:46;7.55;;;6.95;;
12493;SDS011;8260;51.422;6.786;2023-06-19T02:52:14;7.28;;;6.68;;
12493;SDS011;8260;51.422;6.786;2023-06-19T02:54:43;7.47;;;6.78;;
12493;SDS011;8260;51.422;6.786;2023-06-19T02:57:11;8.05;;;7.25;;
12493;SDS011;8260;51.422;6.786;2023-06-19T02:59:40;9.60;;;7.78;;
12493;SDS011;8260;51.422;6.786;2023-06-19T03:02:08;9.18;;;8.00;;
12493;SDS011;8260;51.422;6.786;2023-06-19T03:04:39;8.38;;;7.35;;
12493;SDS011;8260;51.422;6.786;2023-06-19T03:07:08;8.18;;;6.68;;
12493;SDS011;8260;51.422;6.786;2023-06-19T03:09:36;7.57;;;6.78;;
12493;SDS011;8260;51.422;6.786;2023-06-19T03:12:05;7.38;;;6.25;;
12493;SDS011;8260;51.422;6.786;2023-06-19T03:14:34;6.15;;;5.55;;
12493;SDS011;8260;51.422;6.786;2023-06-19T03:17:02;6.63;;;5.13;;
12493;SDS011;8260;51.422;6.786;2023-06-19T03:19:31;6.72;;;5.25;;
12493;SDS011;8260;51.422;6.786;2023-06-19T03:22:02;5.05;;;4.55;;
12493;SDS011;8260;51.422;6.786;2023-06-19T03:24:30;6.07;;;4.10;;
12493;SDS011;8260;51.422;6.786;2023-06-19T03:26:59;5.15;;;4.25;;
12493;SDS011;8260;51.422;6.786;2023-06-19T03:29:27;5.82;;;4.38;;
12493;SDS011;8260;51.422;6.786;2023-06-19T03:31:56;7.00;;;4.32;;
12493;SDS011;8260;51.422;6.786;2023-06-19T03:34:25;4.85;;;4.35;;
12493;SDS011;8260;51.422;6.786;2023-06-19T03:36:53;4.72;;;4.32;;
12493;SDS011;8260;51.422;6.786;2023-06-19T03:39:23;7.18;;;4.38;;
12493;SDS011;8260;51.422;6.786;2023-06-19T03:41:52;4.47;;;4.07;;
12493;SDS011;8260;51.422;6.786;2023-06-19T03:44:20;4.40;;;4.00;;
12493;SDS011;8260;51.422;6.786;2023-06-19T03:46:49;4.18;;;3.78;;
12493;SDS011;8260;51.422;6.786;2023-06-19T03:49:18;5.15;;;3.97;;
12493;SDS011;8260;51.422;6.786;2023-06-19T03:51:46;4.10;;;3.55;;
12493;SDS011;8260;51.422;6.786;2023-06-19T03:54:15;4.28;;;3.88;;
12493;SDS011;8260;51.422;6.786;2023-06-19T03:56:44;6.72;;;3.70;;
12493;SDS011;8260;51.422;6.786;2023-06-19T03:59:13;4.40;;;3.60;;
12493;SDS011;8260;51.422;6.786;2023-06-19T04:01:41;4.30;;;3.90;;
12493;SDS011;8260;51.422;6.786;2023-06-19T04:04:10;4.55;;;3.92;;
12493;SDS011;8260;51.422;6.786;2023-06-19T04:06:39;4.55;;;3.85;;
12493;SDS011;8260;51.422;6.786;2023-06-19T04:09:07;4.15;;;3.85;;
12493;SDS011;8260;51.422;6.786;2023-06-19T04:11:36;3.95;;;3.65;;
12493;SDS011;8260;51.422;6.786;2023-06-19T04:14:05;6.35;;;3.75;;
12493;SDS011;8260;51.422;6.786;2023-06-19T04:16:34;4.22;;;3.72;;
12493;SDS011;8260;51.422;6.786;2023-06-19T04:19:02;5.60;;;4.38;;
12493;SDS011;8260;51.422;6.786;2023-06-19T04:21:31;5.45;;;4.10;;
12493;SDS011;8260;51.422;6.786;2023-06-19T04:23:59;5.43;;;4.28;;
12493;SDS011;8260;51.422;6.786;2023-06-19T04:26:35;4.50;;;4.10;;
12493;SDS011;8260;51.422;6.786;2023-06-19T04:29:05;5.03;;;4.25;;
12493;SDS011;8260;51.422;6.786;2023-06-19T04:31:34;4.50;;;4.10;;
12493;SDS011;8260;51.422;6.786;2023-06-19T04:34:08;5.80;;;4.22;;
12493;SDS011;8260;51.422;6.786;2023-06-19T04:36:36;4.63;;;4.18;;
12493;SDS011;8260;51.422;6.786;2023-06-19T04:39:05;4.32;;;3.92;;
12493;SDS011;8260;51.422;6.786;2023-06-19T04:41:34;4.72;;;3.78;;
12493;SDS011;8260;51.422;6.786;2023-06-19T04:44:06;4.32;;;3.90;;
12493;SDS011;8260;51.422;6.786;2023-06-19T04:46:35;4.68;;;4.07;;
12493;SDS011;8260;51.422;6.786;2023-06-19T04:49:04;4.50;;;3.92;;
12493;SDS011;8260;51.422;6.786;2023-06-19T04:51:33;4.38;;;3.97;;
12493;SDS011;8260;51.422;6.786;2023-06-19T04:54:02;5.28;;;4.28;;
12493;SDS011;8260;51.422;6.786;2023-06-19T04:56:30;4.40;;;4.00;;
12493;SDS011;8260;51.422;6.786;2023-06-19T04:58:59;4.78;;;4.28;;
12493;SDS011;8260;51.422;6.786;2023-06-19T05:01:30;4.20;;;3.65;;
12493;SDS011;8260;51.422;6.786;2023-06-19T05:03:59;5.55;;;4.30;;
12493;SDS011;8260;51.422;6.786;2023-06-19T05:06:27;5.22;;;3.50;;
12493;SDS011;8260;51.422;6.786;2023-06-19T05:08:56;12.90;;;5.95;;
12493;SDS011;8260;51.422;6.786;2023-06-19T05:11:24;6.28;;;4.72;;
12493;SDS011;8260;51.422;6.786;2023-06-19T05:13:53;5.45;;;4.45;;
12493;SDS011;8260;51.422;6.786;2023-06-19T05:16:22;5.70;;;4.30;;
12493;SDS011;8260;51.422;6.786;2023-06-19T05:18:52;7.18;;;4.90;;
12493;SDS011;8260;51.422;6.786;2023-06-19T05:21:21;5.20;;;4.70;;
12493;SDS011;8260;51.422;6.786;2023-06-19T05:23:50;7.88;;;4.75;;
12493;SDS011;8260;51.422;6.786;2023-06-19T05:26:19;5.85;;;4.72;;
12493;SDS011;8260;51.422;6.786;2023-06-19T05:28:48;6.45;;;4.25;;
12493;SDS011;8260;51.422;6.786;2023-06-19T05:31:17;6.88;;;4.47;;
12493;SDS011;8260;51.422;6.786;2023-06-19T05:33:45;4.28;;;3.78;;
12493;SDS011;8260;51.422;6.786;2023-06-19T05:36:15;4.43;;;3.80;;
12493;SDS011;8260;51.422;6.786;2023-06-19T05:38:44;5.53;;;4.20;;
12493;SDS011;8260;51.422;6.786;2023-06-19T05:41:13;3.97;;;3.60;;
12493;SDS011;8260;51.422;6.786;2023-06-19T05:43:42;5.13;;;3.50;;
12493;SDS011;8260;51.422;6.786;2023-06-19T05:46:11;3.60;;;3.30;;
12493;SDS011;8260;51.422;6.786;2023-06-19T05:48:40;3.97;;;3.58;;
12493;SDS011;8260;51.422;6.786;2023-06-19T05:51:08;3.80;;;3.50;;
12493;SDS011;8260;51.422;6.786;2023-06-19T05:53:38;4.13;;;3.30;;
12493;SDS011;8260;51.422;6.786;2023-06-19T05:56:07;4.95;;;3.10;;
12493;SDS011;8260;51.422;6.786;2023-06-19T05:58:35;6.38;;;3.20;;
12493;SDS011;8260;51.422;6.786;2023-06-19T06:01:05;3.78;;;3.47;;
12493;SDS011;8260;51.422;6.786;2023-06-19T06:03:34;4.03;;;3.10;;
12493;SDS011;8260;51.422;6.786;2023-06-19T06:06:04;4.15;;;3.00;;
12493;SDS011;8260;51.422;6.786;2023-06-19T06:08:32;6.22;;;3.10;;
12493;SDS011;8260;51.422;6.786;2023-06-19T06:11:02;4.25;;;3.13;;
12493;SDS011;8260;51.422;6.786;2023-06-19T06:13:31;4.88;;;3.20;;
12493;SDS011;8260;51.422;6.786;2023-06-19T06:15:59;3.65;;;3.13;;
12493;SDS011;8260;51.422;6.786;2023-06-19T06:18:28;2.88;;;2.50;;
12493;SDS011;8260;51.422;6.786;2023-06-19T06:20:56;6.30;;;3.50;;
12493;SDS011;8260;51.422;6.786;2023-06-19T06:23:25;5.70;;;3.70;;
12493;SDS011;8260;51.422;6.786;2023-06-19T06:25:54;6.18;;;4.70;;
12493;SDS011;8260;51.422;6.786;2023-06-19T06:28:30;7.53;;;3.90;;
12493;SDS011;8260;51.422;6.786;2023-06-19T06:30:59;7.05;;;3.83;;
12493;SDS011;8260;51.422;6.786;2023-06-19T06:33:27;4.95;;;3.88;;
12493;SDS011;8260;51.422;6.786;2023-06-19T06:35:57;4.85;;;3.47;;
12493;SDS011;8260;51.422;6.786;2023-06-19T06:38:25;4.15;;;3.75;;
12493;SDS011;8260;51.422;6.786;2023-06-19T06:40:54;5.38;;;3.80;;
12493;SDS011;8260;51.422;6.786;2023-06-19T06:43:22;4.55;;;4.00;;
12493;SDS011;8260;51.422;6.786;2023-06-19T06:45:52;4.60;;;3.72;;
12493;SDS011;8260;51.422;6.786;2023-06-19T06:48:21;4.10;;;3.70;;
12493;SDS011;8260;51.422;6.786;2023-06-19T06:50:50;4.43;;;3.10;;
12493;SDS011;8260;51.422;6.786;2023-06-19T06:53:25;4.90;;;3.42;;
12493;SDS011;8260;51.422;6.786;2023-06-19T06:55:54;6.82;;;3.20;;
12493;SDS011;8260;51.422;6.786;2023-06-19T06:58:23;4.03;;;3.63;;
12493;SDS011;8260;51.422;6.786;2023-06-19T07:00:53;4.22;;;3.20;;
12493;SDS011;8260;51.422;6.786;2023-06-19T07:03:21;5.20;;;3.13;;
12493;SDS011;8260;51.422;6.786;2023-06-19T07:05:50;4.93;;;3.40;;
12493;SDS011;8260;51.422;6.786;2023-06-19T07:08:19;6.63;;;3.40;;
12493;SDS011;8260;51.422;6.786;2023-06-19T07:10:50;3.65;;;3.00;;
12493;SDS011;8260;51.422;6.786;2023-06-19T07:13:19;5.13;;;3.03;;
12493;SDS011;8260;51.422;6.786;2023-06-19T07:15:47;3.40;;;3.10;;
12493;SDS011;8260;51.422;6.786;2023-06-19T07:18:17;4.88;;;2.78;;
12493;SDS011;8260;51.422;6.786;2023-06-19T07:20:46;8.65;;;3.55;;
12493;SDS011;8260;51.422;6.786;2023-06-19T07:23:14;8.85;;;3.30;;
12493;SDS011;8260;51.422;6.786;2023-06-19T07:25:45;4.15;;;3.13;;
12493;SDS011;8260;51.422;6.786;2023-06-19T07:28:14;5.18;;;3.30;;
12493;SDS011;8260;51.422;6.786;2023-06-19T07:30:43;5.57;;;3.45;;
12493;SDS011;8260;51.422;6.786;2023-06-19T07:33:14;5.97;;;3.70;;
12493;SDS011;8260;51.422;6.786;2023-06-19T07:35:44;7.95;;;3.40;;
12493;SDS011;8260;51.422;6.786;2023-06-19T07:38:13;6.65;;;3.40;;
12493;SDS011;8260;51.422;6.786;2023-06-19T07:40:42;6.00;;;3.08;;
12493;SDS011;8260;51.422;6.786;2023-06-19T07:43:11;3.97;;;3.28;;
12493;SDS011;8260;51.422;6.786;2023-06-19T07:45:40;3.58;;;3.20;;
12493;SDS011;8260;51.422;6.786;2023-06-19T07:48:16;3.75;;;2.90;;
12493;SDS011;8260;51.422;6.786;2023-06-19T07:50:46;6.47;;;3.08;;
12493;SDS011;8260;51.422;6.786;2023-06-19T07:53:15;5.85;;;2.55;;
12493;SDS011;8260;51.422;6.786;2023-06-19T07:55:44;3.70;;;2.95;;
12493;SDS011;8260;51.422;6.786;2023-06-19T07:58:12;6.85;;;2.78;;
12493;SDS011;8260;51.422;6.786;2023-06-19T08:00:41;4.80;;;3.17;;
12493;SDS011;8260;51.422;6.786;2023-06-19T08:03:09;5.90;;;4.38;;
12493;SDS011;8260;51.422;6.786;2023-06-19T08:05:38;7.07;;;4.80;;
12493;SDS011;8260;51.422;6.786;2023-06-19T08:08:09;5.70;;;4.20;;
12493;SDS011;8260;51.422;6.786;2023-06-19T08:10:37;8.18;;;3.85;;
12493;SDS011;8260;51.422;6.786;2023-06-19T08:13:07;5.05;;;3.85;;
12493;SDS011;8260;51.422;6.786;2023-06-19T08:15:37;4.10;;;3.67;;
12493;SDS011;8260;51.422;6.786;2023-06-19T08:18:06;6.63;;;3.78;;
12493;SDS011;8260;51.422;6.786;2023-06-19T08:20:34;7.97;;;3.20;;
12493;SDS011;8260;51.422;6.786;2023-06-19T08:23:04;4.38;;;3.30;;
12493;SDS011;8260;51.422;6.786;2023-06-19T08:25:34;7.22;;;4.18;;
12493;SDS011;8260;51.422;6.786;2023-06-19T08:28:02;6.65;;;3.65;;
12493;SDS011;8260;51.422;6.786;2023-06-19T08:30:31;4.50;;;3.50;;
12493;SDS011;8260;51.422;6.786;2023-06-19T08:32:59;4.40;;;3.50;;
12493;SDS011;8260;51.422;6.786;2023-06-19T08:35:28;5.43;;;3.30;;
12493;SDS011;8260;51.422;6.786;2023-06-19T08:37:56;3.83;;;3.25;;
12493;SDS011;8260;51.422;6.786;2023-06-19T08:40:25;6.97;;;3.97;;
12493;SDS011;8260;51.422;6.786;2023-06-19T08:42:55;5.95;;;3.97;;
12493;SDS011;8260;51.422;6.786;2023-06-19T08:45:25;8.52;;;4.00;;
12493;SDS011;8260;51.422;6.786;2023-06-19T08:47:57;4.38;;;3.83;;
12493;SDS011;8260;51.422;6.786;2023-06-19T08:50:26;8.25;;;4.03;;
12493;SDS011;8260;51.422;6.786;2023-06-19T08:52:54;4.10;;;3.70;;
12493;SDS011;8260;51.422;6.786;2023-06-19T08:55:23;4.63;;;3.70;;
12493;SDS011;8260;51.422;6.786;2023-06-19T08:57:52;4.80;;;4.25;;
12493;SDS011;8260;51.422;6.786;2023-06-19T09:00:25;4.90;;;3.72;;
12493;SDS011;8260;51.422;6.786;2023-06-19T09:02:59;5.78;;;3.97;;
12493;SDS011;8260;51.422;6.786;2023-06-19T09:05:40;8.00;;;3.50;;
12493;SDS011;8260;51.422;6.786;2023-06-19T09:08:17;5.55;;;3.63;;
12493;SDS011;8260;51.422;6.786;2023-06-19T09:10:56;4.13;;;3.22;;
12493;SDS011;8260;51.422;6.786;2023-06-19T09:13:24;5.32;;;3.80;;
12493;SDS011;8260;51.422;6.786;2023-06-19T09:16:00;3.88;;;3.58;;
12493;SDS011;8260;51.422;6.786;2023-06-19T09:18:29;4.15;;;3.70;;
12493;SDS011;8260;51.422;6.786;2023-06-19T09:20:58;3.92;;;3.30;;
12493;SDS011;8260;51.422;6.786;2023-06-19T09:23:27;6.10;;;3.47;;
12493;SDS011;8260;51.422;6.786;2023-06-19T09:25:57;4.55;;;3.60;;
12493;SDS011;8260;51.422;6.786;2023-06-19T09:28:26;4.90;;;3.30;;
12493;SDS011;8260;51.422;6.786;2023-06-19T09:30:56;4.65;;;4.00;;
12493;SDS011;8260;51.422;6.786;2023-06-19T09:33:27;5.85;;;3.58;;
12493;SDS011;8260;51.422;6.786;2023-06-19T09:35:56;5.28;;;3.30;;
12493;SDS011;8260;51.422;6.786;2023-06-19T09:38:25;3.50;;;3.20;;
12493;SDS011;8260;51.422;6.786;2023-06-19T09:40:55;6.70;;;3.50;;
12493;SDS011;8260;51.422;6.786;2023-06-19T09:43:25;4.10;;;3.53;;
12493;SDS011;8260;51.422;6.786;2023-06-19T09:45:55;4.95;;;3.45;;
12493;SDS011;8260;51.422;6.786;2023-06-19T09:48:28;4.13;;;3.60;;
12493;SDS011;8260;51.422;6.786;2023-06-19T09:50:59;5.22;;;3.45;;
12493;SDS011;8260;51.422;6.786;2023-06-19T09:53:28;7.15;;;3.78;;
12493;SDS011;8260;51.422;6.786;2023-06-19T09:55:57;4.38;;;3.80;;
12493;SDS011;8260;51.422;6.786;2023-06-19T09:58:26;4.72;;;3.55;;
12493;SDS011;8260;51.422;6.786;2023-06-19T10:00:55;3.90;;;3.50;;
12493;SDS011;8260;51.422;6.786;2023-06-19T10:03:31;5.03;;;3.70;;
12493;SDS011;8260;51.422;6.786;2023-06-19T10:06:00;4.80;;;3.88;;
12493;SDS011;8260;51.422;6.786;2023-06-19T10:08:29;4.20;;;3.80;;
12493;SDS011;8260;51.422;6.786;2023-06-19T10:10:58;6.75;;;3.67;;
12493;SDS011;8260;51.422;6.786;2023-06-19T10:13:33;4.18;;;3.78;;
12493;SDS011;8260;51.422;6.786;2023-06-19T10:16:02;6.82;;;4.22;;
12493;SDS011;8260;51.422;6.786;2023-06-19T10:18:32;5.13;;;4.05;;
12493;SDS011;8260;51.422;6.786;2023-06-19T10:21:01;5.70;;;4.32;;
12493;SDS011;8260;51.422;6.786;2023-06-19T10:23:35;5.18;;;4.22;;
12493;SDS011;8260;51.422;6.786;2023-06-19T10:26:05;4.85;;;4.13;;
12493;SDS011;8260;51.422;6.786;2023-06-19T10:28:34;4.65;;;3.80;;
12493;SDS011;8260;51.422;6.786;2023-06-19T10:31:03;5.53;;;4.28;;
12493;SDS011;8260;51.422;6.786;2023-06-19T10:33:34;4.22;;;3.83;;
12493;SDS011;8260;51.422;6.786;2023-06-19T10:36:13;4.32;;;3.92;;
12493;SDS011;8260;51.422;6.786;2023-06-19T10:38:42;5.68;;;4.55;;
12493;SDS011;8260;51.422;6.786;2023-06-19T10:41:14;4.38;;;3.97;;
12493;SDS011;8260;51.422;6.786;2023-06-19T10:43:52;6.15;;;4.85;;
12493;SDS011;8260;51.422;6.786;2023-06-19T10:46:21;4.80;;;4.30;;
12493;SDS011;8260;51.422;6.786;2023-06-19T10:48:51;6.78;;;4.70;;
12493;SDS011;8260;51.422;6.786;2023-06-19T10:51:23;5.40;;;4.28;;
12493;SDS011;8260;51.422;6.786;2023-06-19T10:53:53;5.03;;;4.28;;
12493;SDS011;8260;51.422;6.786;2023-06-19T10:56:22;5.35;;;4.80;;
12493;SDS011;8260;51.422;6.786;2023-06-19T10:58:56;6.32;;;5.00;;
12493;SDS011;8260;51.422;6.786;2023-06-19T11:01:31;5.35;;;4.85;;
12493;SDS011;8260;51.422;6.786;2023-06-19T11:04:02;5.18;;;4.68;;
12493;SDS011;8260;51.422;6.786;2023-06-19T11:06:31;6.43;;;5.63;;
12493;SDS011;8260;51.422;6.786;2023-06-19T11:09:03;7.47;;;5.28;;
12493;SDS011;8260;51.422;6.786;2023-06-19T11:11:38;6.68;;;5.13;;
12493;SDS011;8260;51.422;6.786;2023-06-19T11:14:06;6.47;;;4.95;;
12493;SDS011;8260;51.422;6.786;2023-06-19T11:16:37;5.32;;;4.82;;
12493;SDS011;8260;51.422;6.786;2023-06-19T11:19:08;6.28;;;5.00;;
12493;SDS011;8260;51.422;6.786;2023-06-19T11:21:37;5.45;;;4.93;;
12493;SDS011;8260;51.422;6.786;2023-06-19T11:24:10;7.10;;;5.90;;
12493;SDS011;8260;51.422;6.786;2023-06-19T11:26:39;7.05;;;5.45;;
12493;SDS011;8260;51.422;6.786;2023-06-19T11:29:13;5.72;;;4.95;;
12493;SDS011;8260;51.422;6.786;2023-06-19T11:31:42;5.45;;;4.95;;
12493;SDS011;8260;51.422;6.786;2023-06-19T11:34:12;5.38;;;4.88;;
12493;SDS011;8260;51.422;6.786;2023-06-19T11:36:41;7.10;;;4.80;;
12493;SDS011;8260;51.422;6.786;2023-06-19T11:39:10;6.47;;;5.25;;
12493;SDS011;8260;51.422;6.786;2023-06-19T11:41:40;6.57;;;5.43;;
12493;SDS011;8260;51.422;6.786;2023-06-19T11:44:09;5.18;;;4.68;;
12493;SDS011;8260;51.422;6.786;2023-06-19T11:46:37;5.47;;;4.93;;
12493;SDS011;8260;51.422;6.786;2023-06-19T11:49:07;6.75;;;5.22;;
12493;SDS011;8260;51.422;6.786;2023-06-19T11:51:37;6.32;;;5.68;;
12493;SDS011;8260;51.422;6.786;2023-06-19T11:54:06;6.50;;;5.70;;
12493;SDS011;8260;51.422;6.786;2023-06-19T11:56:35;6.05;;;5.45;;
12493;SDS011;8260;51.422;6.786;2023-06-19T11:59:04;6.97;;;5.18;;
12493;SDS011;8260;51.422;6.786;2023-06-19T12:01:35;7.07;;;5.65;;
12493;SDS011;8260;51.422;6.786;2023-06-19T12:04:04;6.28;;;5.07;;
12493;SDS011;8260;51.422;6.786;2023-06-19T12:06:33;6.43;;;5.85;;
12493;SDS011;8260;51.422;6.786;2023-06-19T12:09:05;6.90;;;5.90;;
12493;SDS011;8260;51.422;6.786;2023-06-19T12:11:33;7.30;;;5.15;;
12493;SDS011;8260;51.422;6.786;2023-06-19T12:14:02;6.40;;;5.40;;
12493;SDS011;8260;51.422;6.786;2023-06-19T12:16:30;6.25;;;5.03;;
12493;SDS011;8260;51.422;6.786;2023-06-19T12:18:59;6.72;;;5.55;;
12493;SDS011;8260;51.422;6.786;2023-06-19T12:21:27;5.68;;;5.18;;
12493;SDS011;8260;51.422;6.786;2023-06-19T12:24:06;8.80;;;5.80;;
12493;SDS011;8260;51.422;6.786;2023-06-19T12:26:35;5.90;;;5.40;;
12493;SDS011;8260;51.422;6.786;2023-06-19T12:29:04;6.35;;;5.40;;
12493;SDS011;8260;51.422;6.786;2023-06-19T12:31:33;6.40;;;5.80;;
12493;SDS011;8260;51.422;6.786;2023-06-19T12:34:02;6.20;;;5.40;;
12493;SDS011;8260;51.422;6.786;2023-06-19T12:36:50;5.82;;;5.22;;
12493;SDS011;8260;51.422;6.786;2023-06-19T12:39:20;6.75;;;6.15;;
12493;SDS011;8260;51.422;6.786;2023-06-19T12:41:48;6.75;;;5.25;;
12493;SDS011;8260;51.422;6.786;2023-06-19T12:44:17;7.43;;;5.65;;
12493;SDS011;8260;51.422;6.786;2023-06-19T12:46:46;6.43;;;5.43;;
12493;SDS011;8260;51.422;6.786;2023-06-19T12:49:14;6.18;;;5.18;;
12493;SDS011;8260;51.422;6.786;2023-06-19T12:51:43;6.30;;;5.70;;
12493;SDS011;8260;51.422;6.786;2023-06-19T12:54:11;7.50;;;5.65;;
12493;SDS011;8260;51.422;6.786;2023-06-19T12:56:41;6.10;;;5.47;;
12493;SDS011;8260;51.422;6.786;2023-06-19T12:59:10;6.50;;;5.93;;
12493;SDS011;8260;51.422;6.786;2023-06-19T13:01:38;8.18;;;5.70;;
12493;SDS011;8260;51.422;6.786;2023-06-19T13:04:07;5.82;;;5.30;;
12493;SDS011;8260;51.422;6.786;2023-06-19T13:06:37;6.13;;;5.47;;
12493;SDS011;8260;51.422;6.786;2023-06-19T13:09:06;7.40;;;5.95;;
12493;SDS011;8260;51.422;6.786;2023-06-19T13:11:35;7.80;;;5.35;;
12493;SDS011;8260;51.422;6.786;2023-06-19T13:14:05;7.95;;;5.38;;
12493;SDS011;8260;51.422;6.786;2023-06-19T13:16:34;6.28;;;5.50;;
12493;SDS011;8260;51.422;6.786;2023-06-19T13:19:05;6.68;;;5.97;;
12493;SDS011;8260;51.422;6.786;2023-06-19T13:21:34;6.13;;;5.50;;
12493;SDS011;8260;51.422;6.786;2023-06-19T13:24:03;6.90;;;6.28;;
12493;SDS011;8260;51.422;6.786;2023-06-19T13:26:32;5.70;;;5.20;;
12493;SDS011;8260;51.422;6.786;2023-06-19T13:29:01;6.32;;;5.57;;
12493;SDS011;8260;51.422;6.786;2023-06-19T13:31:31;6.13;;;5.63;;
12493;SDS011;8260;51.422;6.786;2023-06-19T13:34:00;5.80;;;5.32;;
12493;SDS011;8260;51.422;6.786;2023-06-19T13:36:28;7.68;;;6.55;;
12493;SDS011;8260;51.422;6.786;2023-06-19T13:38:57;8.80;;;6.03;;
12493;SDS011;8260;51.422;6.786;2023-06-19T13:41:26;6.15;;;5.63;;
12493;SDS011;8260;51.422;6.786;2023-06-19T13:43:57;6.90;;;5.72;;
12493;SDS011;8260;51.422;6.786;2023-06-19T13:46:26;5.88;;;5.20;;
12493;SDS011;8260;51.422;6.786;2023-06-19T13:48:56;6.75;;;5.55;;
12493;SDS011;8260;51.422;6.786;2023-06-19T13:51:25;5.82;;;5.30;;
12493;SDS011;8260;51.422;6.786;2023-06-19T13:53:53;7.22;;;5.25;;
12493;SDS011;8260;51.422;6.786;2023-06-19T13:56:21;6.00;;;5.50;;
12493;SDS011;8260;51.422;6.786;2023-06-19T13:58:50;6.25;;;5.65;;
12493;SDS011;8260;51.422;6.786;2023-06-19T14:01:19;6.18;;;5.30;;
12493;SDS011;8260;51.422;6.786;2023-06-19T14:03:47;7.07;;;5.25;;
12493;SDS011;8260;51.422;6.786;2023-06-19T14:06:17;5.40;;;4.78;;
12493;SDS011;8260;51.422;6.786;2023-06-19T14:08:46;6.25;;;5.05;;
12493;SDS011;8260;51.422;6.786;2023-06-19T14:11:14;5.18;;;4.30;;
12493;SDS011;8260;51.422;6.786;2023-06-19T14:13:46;7.25;;;4.80;;
12493;SDS011;8260;51.422;6.786;2023-06-19T14:16:14;6.60;;;5.20;;
12493;SDS011;8260;51.422;6.786;2023-06-19T14:18:43;5.88;;;5.10;;
12493;SDS011;8260;51.422;6.786;2023-06-19T14:21:12;5.32;;;4.93;;
12493;SDS011;8260;51.422;6.786;2023-06-19T14:23:42;7.00;;;5.28;;
12493;SDS011;8260;51.422;6.786;2023-06-19T14:26:10;5.13;;;4.63;;
12493;SDS011;8260;51.422;6.786;2023-06-19T14:28:39;6.32;;;5.03;;
12493;SDS011;8260;51.422;6.786;2023-06-19T14:31:07;6.97;;;5.47;;
12493;SDS011;8260;51.422;6.786;2023-06-19T14:33:36;5.93;;;5.43;;
12493;SDS011;8260;51.422;6.786;2023-06-19T14:36:05;5.32;;;4.82;;
12493;SDS011;8260;51.422;6.786;2023-06-19T14:38:33;7.30;;;5.35;;
12493;SDS011;8260;51.422;6.786;2023-06-19T14:41:03;5.70;;;5.10;;
12493;SDS011;8260;51.422;6.786;2023-06-19T14:43:31;6.15;;;5.05;;
12493;SDS011;8260;51.422;6.786;2023-06-19T14:46:01;5.43;;;4.93;;
12493;SDS011;8260;51.422;6.786;2023-06-19T14:48:31;4.88;;;4.47;;
12493;SDS011;8260;51.422;6.786;2023-06-19T14:51:00;5.03;;;4.60;;
12493;SDS011;8260;51.422;6.786;2023-06-19T14:53:31;5.00;;;4.60;;
12493;SDS011;8260;51.422;6.786;2023-06-19T14:55:59;6.05;;;4.97;;
12493;SDS011;8260;51.422;6.786;2023-06-19T14:58:30;5.82;;;4.68;;
12493;SDS011;8260;51.422;6.786;2023-06-19T15:00:58;6.63;;;5.60;;
12493;SDS011;8260;51.422;6.786;2023-06-19T15:03:27;5.60;;;5.10;;
12493;SDS011;8260;51.422;6.786;2023-06-19T15:05:55;5.53;;;5.03;;
12493;SDS011;8260;51.422;6.786;2023-06-19T15:08:24;6.10;;;5.47;;
12493;SDS011;8260;51.422;6.786;2023-06-19T15:10:53;7.65;;;5.45;;
12493;SDS011;8260;51.422;6.786;2023-06-19T15:13:21;5.75;;;5.07;;